Time;durP1;ratioP1;P1;durP2;ratioP2;P2;SDS_P1;SDS_P2;PMS_P1;PMS_P2;Temp;Humidity;BMP_temperature;BMP_pressure;BME280_temperature;BME280_humidity;BME280_pressure;Samples;Min_cycle;Max_cycle;Signal;HPM_P1;HPM_P2
2021/07/20 00:00:29;;;;;;;10.55;7.90;;;18.20;70.70;;;;;;5097241;28;20063;-74
2021/07/20 00:02:57;;;;;;;11.02;8.32;;;18.10;71.00;;;;;;5079006;28;20039;-75
2021/07/20 00:05:25;;;;;;;10.93;8.32;;;18.10;71.10;;;;;;5095557;28;20055;-75
2021/07/20 00:07:52;;;;;;;11.98;8.52;;;18.10;71.40;;;;;;5096101;28;20028;-75
2021/07/20 00:10:47;;;;;;;10.55;8.13;;;18.00;71.50;;;;;;5095107;28;20105;-75
2021/07/20 00:13:13;;;;;;;11.82;8.80;;;18.00;71.90;;;;;;5095829;28;20044;-75
2021/07/20 00:15:39;;;;;;;12.07;8.20;;;18.00;71.90;;;;;;5094590;28;20377;-75
2021/07/20 00:18:10;;;;;;;13.32;9.13;;;18.00;72.00;;;;;;5096191;28;20528;-75
2021/07/20 00:20:37;;;;;;;12.63;8.40;;;17.90;72.00;;;;;;5094533;28;20028;-75
2021/07/20 00:23:04;;;;;;;10.13;8.45;;;17.80;72.90;;;;;;5096320;28;20062;-75
2021/07/20 00:25:30;;;;;;;11.75;8.55;;;17.80;72.50;;;;;;5095028;28;20054;-75
2021/07/20 00:27:56;;;;;;;12.88;8.95;;;17.70;72.70;;;;;;5077740;28;20541;-75
2021/07/20 00:30:22;;;;;;;13.57;8.95;;;17.70;72.90;;;;;;5079721;28;20077;-75
2021/07/20 00:32:48;;;;;;;15.73;9.27;;;17.70;73.00;;;;;;5095774;28;20071;-76
2021/07/20 00:35:14;;;;;;;13.32;8.77;;;17.70;73.10;;;;;;5094722;28;20078;-75
2021/07/20 00:37:41;;;;;;;13.57;9.07;;;17.60;73.20;;;;;;5096062;28;20118;-75
2021/07/20 00:40:10;;;;;;;12.05;8.30;;;17.60;73.50;;;;;;5094959;28;20081;-75
2021/07/20 00:42:36;;;;;;;13.20;9.02;;;17.50;73.60;;;;;;5096327;28;20028;-75
2021/07/20 00:45:03;;;;;;;14.00;9.07;;;17.50;73.70;;;;;;5094443;28;20035;-75
2021/07/20 00:47:29;;;;;;;13.48;8.88;;;17.50;73.90;;;;;;5094672;28;20043;-75
2021/07/20 00:49:55;;;;;;;12.82;9.13;;;17.50;73.90;;;;;;5097105;28;20028;-75
2021/07/20 00:52:20;;;;;;;14.60;9.57;;;17.40;74.10;;;;;;5081418;28;20025;-75
2021/07/20 00:54:46;;;;;;;13.20;9.38;;;17.40;74.20;;;;;;5065091;28;20047;-82
2021/07/20 00:57:12;;;;;;;11.95;9.05;;;17.40;74.00;;;;;;5081864;28;20129;-75
2021/07/20 00:59:40;;;;;;;12.95;8.98;;;17.30;74.00;;;;;;5080183;28;20477;-75
2021/07/20 01:02:06;;;;;;;12.10;8.60;;;17.40;74.20;;;;;;5095695;28;20020;-75
2021/07/20 01:04:32;;;;;;;12.05;9.25;;;17.30;74.40;;;;;;5094384;28;20040;-75
2021/07/20 01:06:59;;;;;;;11.85;9.25;;;17.30;74.30;;;;;;5060492;28;20385;-74
2021/07/20 01:09:27;;;;;;;15.13;9.82;;;17.30;74.50;;;;;;5095659;28;20031;-74
2021/07/20 01:11:53;;;;;;;12.00;9.00;;;17.20;74.20;;;;;;5094055;28;20081;-75
2021/07/20 01:14:20;;;;;;;11.88;9.32;;;17.20;74.60;;;;;;5095617;28;20046;-74
2021/07/20 01:16:47;;;;;;;11.63;8.85;;;17.20;74.50;;;;;;5095355;28;20083;-74
2021/07/20 01:19:15;;;;;;;14.75;9.07;;;17.10;74.60;;;;;;5093779;28;20031;-74
2021/07/20 01:21:42;;;;;;;16.13;9.55;;;17.10;74.70;;;;;;5094934;28;20032;-75
2021/07/20 01:24:11;;;;;;;13.07;9.77;;;17.00;74.70;;;;;;5094756;28;20533;-75
2021/07/20 01:26:37;;;;;;;14.15;10.43;;;17.00;74.80;;;;;;5093475;28;20107;-75
2021/07/20 01:29:07;;;;;;;12.98;9.25;;;17.00;74.70;;;;;;5093517;28;20127;-75
2021/07/20 01:31:37;;;;;;;12.70;9.13;;;17.00;74.90;;;;;;5093843;28;20021;-75
2021/07/20 01:34:06;;;;;;;12.45;8.95;;;16.90;75.00;;;;;;5095073;28;20025;-75
2021/07/20 01:36:33;;;;;;;13.27;9.95;;;16.90;75.10;;;;;;5093389;28;20039;-74
2021/07/20 01:39:02;;;;;;;13.43;9.70;;;16.90;75.40;;;;;;5077064;28;20353;-74
2021/07/20 01:41:30;;;;;;;12.45;9.75;;;16.90;75.30;;;;;;5094307;28;20102;-74
2021/07/20 01:44:03;;;;;;;13.77;9.38;;;16.90;75.40;;;;;;5094259;28;20020;-75
2021/07/20 01:46:32;;;;;;;;;;;16.90;75.30;;;;;;5094902;28;20073;-73
2021/07/20 01:49:00;;;;;;;15.23;10.02;;;16.80;75.20;;;;;;5093322;28;20373;-73
2021/07/20 01:51:26;;;;;;;14.40;9.13;;;16.90;75.20;;;;;;5092769;28;20050;-73
2021/07/20 01:53:53;;;;;;;13.30;9.40;;;16.80;75.20;;;;;;5092760;28;20123;-74
2021/07/20 01:56:20;;;;;;;15.80;10.18;;;16.80;75.30;;;;;;5093094;28;20059;-74
2021/07/20 01:58:47;;;;;;;17.27;10.20;;;16.80;75.20;;;;;;5093180;28;20024;-74
2021/07/20 02:01:26;;;;;;;16.65;9.90;;;16.80;75.30;;;;;;5093490;28;20024;-73
2021/07/20 02:09:31;;;;;;;14.30;9.63;;;16.70;75.60;;;;;;5094896;28;20389;-74
2021/07/20 02:11:58;;;;;;;14.68;9.63;;;16.70;75.70;;;;;;5093971;28;20086;-79
2021/07/20 02:14:31;;;;;;;16.00;10.20;;;16.60;75.80;;;;;;5093253;28;20024;-75
2021/07/20 02:16:59;;;;;;;;;;;16.60;75.80;;;;;;5093174;28;20156;-79
2021/07/20 02:19:35;;;;;;;15.88;10.20;;;16.50;75.90;;;;;;5093819;28;19908;-74
2021/07/20 02:22:03;;;;;;;16.75;9.52;;;16.50;76.00;;;;;;5093814;28;20028;-75
2021/07/20 02:24:31;;;;;;;12.93;9.73;;;16.50;76.10;;;;;;5093010;28;20039;-74
2021/07/20 02:27:04;;;;;;;17.45;11.15;;;16.50;76.20;;;;;;5094224;28;20024;-79
2021/07/20 02:29:31;;;;;;;15.70;10.32;;;16.50;76.40;;;;;;5093547;28;20110;-74
2021/07/20 02:32:02;;;;;;;16.30;10.88;;;16.50;76.30;;;;;;5093660;28;20099;-74
2021/07/20 02:34:30;;;;;;;17.10;10.35;;;16.40;76.10;;;;;;5092419;28;20106;-74
2021/07/20 02:36:57;;;;;;;16.08;10.50;;;16.40;76.20;;;;;;5093660;28;20024;-74
2021/07/20 02:39:24;;;;;;;14.73;10.15;;;16.30;76.10;;;;;;5092016;28;20028;-73
2021/07/20 02:41:52;;;;;;;14.45;9.57;;;16.30;76.40;;;;;;5092387;28;20028;-74
2021/07/20 02:44:19;;;;;;;17.88;10.93;;;16.40;76.50;;;;;;5093500;28;20099;-75
2021/07/20 02:46:46;;;;;;;17.40;10.63;;;16.40;76.30;;;;;;5075733;28;20463;-75
2021/07/20 02:49:13;;;;;;;16.80;10.75;;;16.40;76.30;;;;;;5075343;28;20028;-74
2021/07/20 02:51:40;;;;;;;18.00;10.88;;;16.30;76.60;;;;;;5094140;28;20032;-74
2021/07/20 02:54:06;;;;;;;18.77;11.13;;;16.20;77.00;;;;;;5092051;28;20061;-75
2021/07/20 02:56:33;;;;;;;16.80;10.95;;;16.30;76.80;;;;;;5092396;28;20375;-74
2021/07/20 02:59:05;;;;;;;15.82;10.52;;;16.20;76.70;;;;;;5075262;28;20028;-74
2021/07/20 03:01:35;;;;;;;16.88;10.52;;;16.20;76.50;;;;;;5093340;28;20024;-74
2021/07/20 03:04:02;;;;;;;16.40;10.40;;;16.20;76.80;;;;;;5094853;28;20487;-81
2021/07/20 03:06:29;;;;;;;17.65;11.20;;;16.20;76.70;;;;;;5096177;28;20371;-74
2021/07/20 03:08:58;;;;;;;18.42;10.25;;;16.20;76.90;;;;;;5095664;28;20487;-74
2021/07/20 03:11:31;;;;;;;18.02;10.88;;;16.20;76.80;;;;;;5097188;28;20066;-74
2021/07/20 03:14:06;;;;;;;17.23;10.73;;;16.20;77.00;;;;;;5097364;28;20091;-74
2021/07/20 03:16:34;;;;;;;18.90;11.30;;;16.30;76.80;;;;;;5095656;28;20044;-74
2021/07/20 03:19:00;;;;;;;19.25;11.63;;;16.30;76.60;;;;;;5096078;28;20020;-73
2021/07/20 03:21:27;;;;;;;17.27;10.73;;;16.40;76.20;;;;;;5095998;28;20044;-74
2021/07/20 03:23:55;;;;;;;18.05;10.48;;;16.40;76.30;;;;;;5095819;28;20055;-74
2021/07/20 03:26:23;;;;;;;16.13;10.50;;;16.40;76.50;;;;;;5095680;28;20535;-75
2021/07/20 03:28:50;;;;;;;18.58;10.65;;;16.30;76.30;;;;;;5097041;28;20035;-75
2021/07/20 03:31:17;;;;;;;16.75;10.73;;;16.40;76.40;;;;;;5095907;28;20032;-75
2021/07/20 03:33:44;;;;;;;17.67;11.40;;;16.30;76.30;;;;;;5096859;28;20115;-75
2021/07/20 03:36:10;;;;;;;16.08;10.43;;;16.30;76.20;;;;;;5096340;28;20419;-76
2021/07/20 03:38:37;;;;;;;15.07;10.32;;;16.30;76.30;;;;;;5095278;28;20087;-74
2021/07/20 03:41:04;;;;;;;16.98;11.48;;;16.30;76.50;;;;;;5095208;28;20033;-76
2021/07/20 03:43:31;;;;;;;17.80;10.95;;;16.20;76.60;;;;;;5095599;28;20024;-75
2021/07/20 03:46:01;;;;;;;17.92;11.00;;;16.10;76.70;;;;;;5062618;28;20032;-75
2021/07/20 03:48:27;;;;;;;17.55;11.60;;;16.20;76.80;;;;;;5096213;28;20497;-76
2021/07/20 03:50:54;;;;;;;18.50;11.38;;;16.10;76.90;;;;;;5096605;28;20020;-75
2021/07/20 03:53:20;;;;;;;18.00;11.50;;;16.10;76.90;;;;;;5061322;28;20027;-76
2021/07/20 03:55:49;;;;;;;18.67;11.45;;;16.10;77.10;;;;;;5096433;28;20040;-76
2021/07/20 03:58:16;;;;;;;16.70;10.95;;;16.20;77.00;;;;;;5095091;28;20075;-76
2021/07/20 04:00:45;;;;;;;18.15;11.70;;;16.20;76.80;;;;;;5096399;28;20051;-75
2021/07/20 04:03:21;;;;;;;19.42;11.30;;;16.20;77.20;;;;;;5096538;28;20028;-80
2021/07/20 04:05:49;;;;;;;17.05;11.48;;;16.20;76.80;;;;;;5080362;28;20085;-75
2021/07/20 04:08:18;;;;;;;20.30;11.32;;;16.20;76.60;;;;;;5094836;28;20036;-75
2021/07/20 04:10:46;;;;;;;19.10;11.35;;;16.30;76.60;;;;;;5078381;28;20054;-75
2021/07/20 04:13:13;;;;;;;19.17;12.43;;;16.20;76.60;;;;;;5095051;28;20020;-80
2021/07/20 04:15:46;;;;;;;18.95;12.05;;;16.30;76.50;;;;;;5094287;28;20496;-75
2021/07/20 04:18:13;;;;;;;17.95;11.30;;;16.30;76.30;;;;;;5094711;28;20548;-80
2021/07/20 04:20:40;;;;;;;20.23;11.73;;;16.30;76.30;;;;;;5094422;28;20484;-75
2021/07/20 04:23:07;;;;;;;20.27;11.93;;;16.40;76.10;;;;;;5095036;28;20028;-75
2021/07/20 04:25:36;;;;;;;19.52;12.27;;;16.50;75.70;;;;;;5094513;28;20024;-74
2021/07/20 04:28:03;;;;;;;19.73;12.57;;;16.60;75.40;;;;;;5094607;28;20031;-75
2021/07/20 04:30:29;;;;;;;18.20;12.13;;;16.70;75.20;;;;;;5077957;28;20038;-75
2021/07/20 04:32:55;;;;;;;20.95;12.60;;;16.90;74.60;;;;;;5095503;28;20103;-75
2021/07/20 04:35:22;;;;;;;18.88;12.98;;;17.40;73.30;;;;;;5093968;28;20031;-75
2021/07/20 04:37:51;;;;;;;22.08;12.80;;;18.10;71.50;;;;;;5094369;28;20043;-75
2021/07/20 04:40:17;;;;;;;17.60;11.82;;;18.70;70.00;;;;;;5094891;28;20028;-80
2021/07/20 04:42:43;;;;;;;19.02;11.55;;;19.20;68.50;;;;;;5095599;28;20052;-75
2021/07/20 04:45:11;;;;;;;25.08;13.00;;;19.70;67.30;;;;;;5095788;28;20028;-75
2021/07/20 04:47:37;;;;;;;19.85;11.85;;;20.00;65.90;;;;;;5095547;28;20099;-75
2021/07/20 04:50:08;;;;;;;19.55;11.93;;;20.40;64.80;;;;;;5094026;28;20024;-75
2021/07/20 04:52:35;;;;;;;18.73;11.88;;;20.80;63.80;;;;;;5093967;28;20028;-75
2021/07/20 04:55:02;;;;;;;17.55;11.80;;;21.10;62.80;;;;;;5093716;28;20077;-75
2021/07/20 04:57:30;;;;;;;18.48;10.98;;;21.40;62.10;;;;;;5095772;28;20161;-75
2021/07/20 04:59:55;;;;;;;17.20;11.85;;;21.70;61.30;;;;;;5094193;28;20032;-75
2021/07/20 05:02:22;;;;;;;16.27;10.90;;;21.90;60.60;;;;;;5093883;28;20452;-75
2021/07/20 05:04:49;;;;;;;18.83;12.13;;;22.20;59.90;;;;;;5094219;28;20481;-75
2021/07/20 05:07:17;;;;;;;18.17;10.77;;;22.50;59.10;;;;;;5093982;28;20027;-75
2021/07/20 05:09:44;;;;;;;20.42;11.80;;;22.70;58.30;;;;;;5094280;28;20028;-74
2021/07/20 05:12:14;;;;;;;15.30;11.18;;;22.90;57.50;;;;;;5094384;28;20028;-73
2021/07/20 05:14:41;;;;;;;19.02;11.80;;;23.20;56.60;;;;;;5094808;28;20034;-74
2021/07/20 05:17:08;;;;;;;17.45;11.82;;;23.50;55.70;;;;;;5093710;28;20442;-74
2021/07/20 05:19:35;;;;;;;18.10;12.10;;;23.80;55.10;;;;;;5094956;28;20024;-75
2021/07/20 05:22:02;;;;;;;18.98;13.25;;;24.00;54.40;;;;;;5093730;28;20434;-74
2021/07/20 05:24:30;;;;;;;14.75;11.90;;;24.10;53.70;;;;;;5077394;28;20097;-75
2021/07/20 05:26:58;;;;;;;14.55;11.23;;;24.40;53.10;;;;;;5093025;28;20024;-75
2021/07/20 05:29:24;;;;;;;17.10;11.98;;;24.70;52.60;;;;;;5060405;28;20052;-75
2021/07/20 05:31:50;;;;;;;18.02;12.90;;;24.70;52.00;;;;;;5080640;28;20024;-74
2021/07/20 05:34:17;;;;;;;20.65;12.77;;;24.90;51.50;;;;;;5104646;28;20077;-75
2021/07/20 05:36:44;;;;;;;16.52;12.55;;;25.10;50.80;;;;;;5103395;28;20020;-75
2021/07/20 05:39:11;;;;;;;17.23;12.07;;;24.90;51.00;;;;;;5103438;28;20447;-75
2021/07/20 05:41:39;;;;;;;17.50;12.75;;;24.70;51.50;;;;;;5100332;28;20048;-75
2021/07/20 05:44:10;;;;;;;19.40;12.88;;;24.90;51.20;;;;;;5099494;28;20024;-75
2021/07/20 05:46:36;;;;;;;17.02;12.40;;;24.70;51.40;;;;;;5097490;28;20123;-76
2021/07/20 05:49:02;;;;;;;17.33;12.95;;;24.00;53.00;;;;;;5096057;28;20032;-74
2021/07/20 05:51:28;;;;;;;16.77;12.25;;;24.40;52.80;;;;;;5093041;28;20034;-75
2021/07/20 05:53:54;;;;;;;21.27;14.18;;;24.90;51.60;;;;;;5094025;28;20380;-76
2021/07/20 05:56:21;;;;;;;18.05;12.20;;;24.90;50.60;;;;;;5076650;28;20032;-75
2021/07/20 05:58:47;;;;;;;18.30;12.18;;;24.80;51.60;;;;;;5094060;28;20024;-74
2021/07/20 06:01:13;;;;;;;16.35;12.32;;;25.00;51.20;;;;;;5093473;28;20472;-74
2021/07/20 06:03:40;;;;;;;18.33;12.38;;;25.30;50.60;;;;;;5093111;28;20036;-77
2021/07/20 06:06:07;;;;;;;16.48;11.88;;;25.80;50.00;;;;;;5094206;28;20085;-76
2021/07/20 06:08:33;;;;;;;17.52;11.35;;;26.20;49.00;;;;;;5092839;28;20028;-76
2021/07/20 06:11:08;;;;;;;16.33;11.88;;;25.60;49.80;;;;;;5075930;28;20035;-75
2021/07/20 06:13:37;;;;;;;13.52;11.02;;;25.80;51.70;;;;;;5094073;28;20103;-75
2021/07/20 06:16:05;;;;;;;17.25;13.45;;;26.30;51.00;;;;;;5093582;28;20422;-75
2021/07/20 06:18:31;;;;;;;21.63;13.57;;;26.50;50.00;;;;;;5094359;28;20024;-76
2021/07/20 06:21:00;;;;;;;22.10;13.00;;;26.60;49.00;;;;;;5093733;28;20089;-74
2021/07/20 06:23:32;;;;;;;23.63;13.65;;;26.20;49.60;;;;;;5092617;28;20016;-81
2021/07/20 06:25:58;;;;;;;21.23;14.55;;;25.80;49.80;;;;;;5094797;28;20493;-74
2021/07/20 06:28:26;;;;;;;20.77;13.70;;;25.30;50.50;;;;;;5093502;28;20032;-75
2021/07/20 06:30:52;;;;;;;19.85;14.75;;;25.10;51.60;;;;;;5094003;28;20122;-74
2021/07/20 06:33:20;;;;;;;36.83;28.25;;;25.50;50.70;;;;;;5092304;28;20024;-76
2021/07/20 06:35:47;;;;;;;67.30;50.03;;;25.50;50.80;;;;;;5092863;28;20031;-75
2021/07/20 06:38:15;;;;;;;52.40;39.20;;;25.70;50.40;;;;;;5092530;28;20036;-75
2021/07/20 06:40:48;;;;;;;52.88;39.58;;;25.60;50.00;;;;;;5097682;28;20024;-75
2021/07/20 06:43:15;;;;;;;38.28;28.38;;;25.40;50.80;;;;;;5097394;28;20024;-75
2021/07/20 06:45:43;;;;;;;37.47;28.75;;;25.10;51.20;;;;;;5080433;28;20181;-74
2021/07/20 06:48:14;;;;;;;51.67;35.55;;;25.00;51.00;;;;;;5096174;28;20032;-74
2021/07/20 06:50:41;;;;;;;66.90;52.75;;;25.00;51.20;;;;;;5097709;28;20162;-76
2021/07/20 06:53:07;;;;;;;65.97;47.42;;;25.60;50.60;;;;;;5096440;28;20035;-76
2021/07/20 06:55:36;;;;;;;62.50;44.50;;;25.70;49.60;;;;;;5097507;28;20024;-77
2021/07/20 06:58:03;;;;;;;48.58;37.35;;;25.70;50.10;;;;;;5097578;28;20090;-74
2021/07/20 07:00:29;;;;;;;36.65;27.80;;;25.50;50.40;;;;;;5096318;28;20027;-79
2021/07/20 07:02:59;;;;;;;27.73;21.13;;;25.50;50.80;;;;;;5097471;28;20028;-75
2021/07/20 07:05:28;;;;;;;22.38;16.33;;;26.10;49.70;;;;;;5097979;28;20028;-75
2021/07/20 07:07:55;;;;;;;32.58;24.23;;;26.40;48.50;;;;;;5096222;28;20032;-75
2021/07/20 07:10:22;;;;;;;51.05;37.67;;;26.60;47.70;;;;;;5097577;28;20114;-75
2021/07/20 07:12:51;;;;;;;53.97;41.33;;;26.20;48.60;;;;;;5098697;28;20368;-75
2021/07/20 07:15:18;;;;;;;32.97;25.60;;;25.90;48.90;;;;;;5101925;28;20032;-76
2021/07/20 07:17:49;;;;;;;34.05;23.00;;;25.80;48.60;;;;;;5104204;28;20040;-75
2021/07/20 07:20:18;;;;;;;20.65;15.32;;;25.20;49.50;;;;;;5104822;28;20035;-74
2021/07/20 07:22:45;;;;;;;16.88;13.23;;;25.00;49.50;;;;;;5104267;28;20024;-75
2021/07/20 07:25:11;;;;;;;33.08;23.58;;;25.30;49.40;;;;;;5100096;28;20028;-76
2021/07/20 07:27:38;;;;;;;21.67;15.27;;;25.50;49.10;;;;;;5095571;28;20054;-77
2021/07/20 07:30:07;;;;;;;20.02;15.90;;;25.70;48.20;;;;;;5097471;28;20031;-75
2021/07/20 07:32:33;;;;;;;25.52;20.00;;;25.50;48.30;;;;;;5095883;28;20024;-80
2021/07/20 07:35:00;;;;;;;19.10;13.90;;;25.80;48.60;;;;;;5095325;28;20038;-74
2021/07/20 07:37:26;;;;;;;16.77;12.38;;;25.90;47.70;;;;;;5097492;28;20448;-75
2021/07/20 07:39:55;;;;;;;30.25;21.75;;;25.50;48.10;;;;;;5097404;28;20111;-76
2021/07/20 07:42:21;;;;;;;21.70;16.10;;;25.50;49.00;;;;;;5097372;28;20513;-75
2021/07/20 07:44:53;;;;;;;32.38;24.60;;;25.80;48.10;;;;;;5096595;28;20032;-75
2021/07/20 07:47:19;;;;;;;26.55;19.20;;;26.30;48.40;;;;;;5096653;28;20055;-75
2021/07/20 07:49:45;;;;;;;17.55;13.35;;;26.90;47.30;;;;;;5078410;28;20024;-75
2021/07/20 07:52:13;;;;;;;19.40;13.48;;;26.80;45.30;;;;;;5095264;28;20078;-75
2021/07/20 07:54:45;;;;;;;18.20;12.40;;;26.00;47.10;;;;;;5095367;28;20476;-76
2021/07/20 07:57:11;;;;;;;;;;;26.00;48.40;;;;;;5095599;28;20016;-74
2021/07/20 07:59:41;;;;;;;17.67;11.23;;;26.30;46.60;;;;;;5096396;28;20280;-78
2021/07/20 08:02:11;;;;;;;16.95;10.30;;;26.10;46.90;;;;;;5096241;28;20016;-75
2021/07/20 08:04:42;;;;;;;14.68;10.13;;;26.50;48.00;;;;;;5096606;28;20457;-74
2021/07/20 08:07:08;;;;;;;15.25;9.00;;;27.30;46.20;;;;;;5096858;28;20021;-75
2021/07/20 08:09:34;;;;;;;20.75;16.90;;;27.70;45.60;;;;;;5095686;28;20039;-75
2021/07/20 08:12:01;;;;;;;19.02;14.52;;;27.60;45.10;;;;;;5096674;28;20016;-75
2021/07/20 08:14:28;;;;;;;18.30;13.98;;;27.10;45.50;;;;;;5094933;28;20035;-73
2021/07/20 08:17:00;;;;;;;16.75;12.57;;;27.30;46.20;;;;;;5096186;28;20036;-74
2021/07/20 08:19:27;;;;;;;18.30;12.77;;;28.00;45.00;;;;;;5096509;28;20039;-74
2021/07/20 08:22:01;;;;;;;20.52;13.00;;;28.20;43.00;;;;;;5078058;28;20111;-74
2021/07/20 08:24:29;;;;;;;18.20;12.23;;;27.70;44.50;;;;;;5094484;28;20115;-74
2021/07/20 08:27:07;;;;;;;26.92;20.10;;;27.80;44.30;;;;;;5094572;28;20028;-75
2021/07/20 08:29:37;;;;;;;27.20;20.23;;;27.70;44.70;;;;;;5095395;28;20027;-74
2021/07/20 08:32:10;;;;;;;27.38;21.75;;;27.70;44.70;;;;;;5096569;28;20031;-74
2021/07/20 08:34:40;;;;;;;;;;;28.30;43.90;;;;;;5095586;28;20035;-75
2021/07/20 08:37:08;;;;;;;25.75;20.95;;;27.90;42.40;;;;;;5095690;28;19904;-75
2021/07/20 08:39:34;;;;;;;24.75;20.27;;;27.50;44.30;;;;;;5095523;28;20040;-75
2021/07/20 08:42:15;;;;;;;14.15;11.30;;;28.00;43.90;;;;;;5094263;28;20146;-75
2021/07/20 08:45:09;;;;;;;15.18;10.32;;;27.70;42.80;;;;;;5094907;28;20035;-76
2021/07/20 08:47:41;;;;;;;12.43;9.82;;;27.50;42.20;;;;;;5093584;28;20552;-76
2021/07/20 08:50:33;;;;;;;13.73;9.48;;;27.00;43.90;;;;;;5094955;28;20016;-76
2021/07/20 08:53:07;;;;;;;16.95;12.70;;;26.60;43.10;;;;;;5094952;28;20491;-78
2021/07/20 08:55:44;;;;;;;15.52;12.57;;;26.80;45.60;;;;;;5093729;28;20503;-78
2021/07/20 08:58:25;;;;;;;15.95;13.52;;;28.00;44.30;;;;;;5094369;28;20059;-75
2021/07/20 09:00:55;;;;;;;14.57;11.60;;;28.30;42.90;;;;;;5093902;28;20039;-75
2021/07/20 09:03:32;;;;;;;13.75;11.93;;;28.30;41.60;;;;;;5093872;28;20028;-76
2021/07/20 09:06:07;;;;;;;11.50;9.68;;;28.10;43.40;;;;;;5094869;28;20077;-76
2021/07/20 09:08:44;;;;;;;10.77;9.68;;;28.00;42.30;;;;;;5095444;28;20036;-75
2021/07/20 09:11:44;;;;;;;10.93;9.15;;;28.10;44.40;;;;;;5095164;28;20079;-75
2021/07/20 09:14:37;;;;;;;11.13;9.52;;;28.80;43.70;;;;;;5094997;28;20020;-75
2021/07/20 09:17:21;;;;;;;;;;;29.40;42.80;;;;;;5093864;28;20105;-74
2021/07/20 09:19:58;;;;;;;12.48;9.13;;;29.60;41.70;;;;;;5094352;28;19904;-75
2021/07/20 09:22:35;;;;;;;10.50;8.63;;;29.20;40.80;;;;;;5093158;28;20031;-75
2021/07/20 09:25:12;;;;;;;11.70;8.73;;;29.00;41.80;;;;;;5095068;28;20019;-75
2021/07/20 09:27:53;;;;;;;10.45;8.93;;;29.00;42.30;;;;;;5095341;28;20020;-75
2021/07/20 09:30:25;;;;;;;10.07;8.27;;;28.70;41.40;;;;;;5094504;28;20047;-75
2021/07/20 09:33:16;;;;;;;10.05;8.45;;;28.60;43.20;;;;;;5092975;28;20035;-76
2021/07/20 09:35:41;;;;;;;10.77;8.95;;;29.00;42.10;;;;;;5094522;28;20028;-74
2021/07/20 09:38:15;;;;;;;10.00;8.00;;;29.60;41.40;;;;;;5094786;28;20508;-74
2021/07/20 09:40:48;;;;;;;11.30;8.05;;;29.80;40.60;;;;;;5094141;28;20125;-75
2021/07/20 09:43:55;;;;;;;11.23;8.18;;;28.80;40.10;;;;;;5095021;28;20020;-76
2021/07/20 09:46:49;;;;;;;11.18;8.27;;;28.00;43.30;;;;;;5057238;28;20034;-76
2021/07/20 09:49:27;;;;;;;9.88;7.97;;;27.90;43.70;;;;;;5086897;28;20112;-75
2021/07/20 09:52:14;;;;;;;9.68;7.68;;;28.10;43.50;;;;;;5093425;28;20047;-79
2021/07/20 09:55:08;;;;;;;13.50;8.95;;;28.40;42.80;;;;;;5093190;28;20040;-74
2021/07/20 09:57:45;;;;;;;9.18;7.68;;;28.30;41.70;;;;;;5094605;28;20478;-76
2021/07/20 10:00:20;;;;;;;11.13;8.73;;;28.50;43.00;;;;;;5094136;28;20013;-75
2021/07/20 10:03:09;;;;;;;9.55;8.25;;;28.30;40.40;;;;;;5094207;28;20098;-76
2021/07/20 10:05:56;;;;;;;11.30;8.48;;;27.40;42.30;;;;;;5093240;28;20024;-74
2021/07/20 10:08:32;;;;;;;10.25;8.77;;;27.00;43.10;;;;;;5094042;28;20060;-75
2021/07/20 10:11:40;;;;;;;12.05;9.18;;;26.50;43.70;;;;;;5094199;28;20031;-75
2021/07/20 10:14:18;;;;;;;11.15;7.78;;;26.60;43.00;;;;;;5092077;28;20107;-75
2021/07/20 10:17:18;;;;;;;13.50;8.90;;;26.80;44.80;;;;;;5092591;28;20126;-75
2021/07/20 10:20:16;;;;;;;9.30;8.25;;;27.10;42.30;;;;;;5094027;28;20064;-75
2021/07/20 10:22:54;;;;;;;11.10;8.52;;;27.10;43.20;;;;;;5048889;28;20047;-75
2021/07/20 10:25:37;;;;;;;12.65;9.32;;;27.00;43.30;;;;;;5094278;28;20024;-75
2021/07/20 10:28:18;;;;;;;10.95;7.97;;;27.10;42.60;;;;;;5092739;28;20031;-74
2021/07/20 10:30:56;;;;;;;9.25;7.93;;;27.60;43.40;;;;;;5093791;28;20031;-74
2021/07/20 10:33:26;;;;;;;12.23;9.38;;;27.90;42.20;;;;;;5093947;28;20452;-74
2021/07/20 10:36:20;;;;;;;10.80;7.50;;;27.60;42.00;;;;;;5094244;28;20055;-75
2021/07/20 10:38:51;;;;;;;12.15;9.30;;;26.60;43.20;;;;;;5089828;28;20456;-75
2021/07/20 10:41:36;;;;;;;8.32;7.40;;;26.80;42.40;;;;;;5092881;28;20161;-76
2021/07/20 10:44:10;;;;;;;8.75;7.10;;;27.40;44.50;;;;;;5094147;28;20021;-76
2021/07/20 10:46:37;;;;;;;10.90;8.50;;;28.40;43.50;;;;;;5093454;28;20020;-74
2021/07/20 10:49:19;;;;;;;10.65;8.10;;;28.70;41.00;;;;;;5093333;28;20036;-75
2021/07/20 10:51:49;;;;;;;10.63;8.07;;;28.20;40.50;;;;;;5092841;28;20096;-75
2021/07/20 10:54:25;;;;;;;9.98;8.05;;;28.30;43.60;;;;;;5092937;28;20046;-76
2021/07/20 10:56:58;;;;;;;9.57;7.80;;;28.20;40.60;;;;;;5092765;28;20073;-75
2021/07/20 11:00:18;;;;;;;8.43;7.22;;;27.90;42.30;;;;;;5093065;28;20468;-75
2021/07/20 11:02:49;;;;;;;8.05;6.97;;;28.00;43.50;;;;;;5011887;28;20520;-74
2021/07/20 11:05:18;;;;;;;11.18;8.63;;;28.70;42.40;;;;;;5079582;28;20044;-76
2021/07/20 11:08:02;;;;;;;10.35;9.10;;;28.50;41.70;;;;;;5094106;28;20088;-76
2021/07/20 11:10:55;;;;;;;10.20;8.55;;;28.30;41.40;;;;;;5093996;28;20024;-75
2021/07/20 11:13:34;;;;;;;10.98;8.32;;;27.90;42.20;;;;;;5092701;28;20491;-75
2021/07/20 11:16:14;;;;;;;11.23;8.02;;;27.20;42.20;;;;;;5093807;28;20507;-79
2021/07/20 11:18:41;;;;;;;10.13;8.50;;;27.00;44.50;;;;;;5094158;28;20028;-75
2021/07/20 11:21:11;;;;;;;10.75;8.13;;;27.40;42.90;;;;;;5093254;28;20021;-75
2021/07/20 11:23:43;;;;;;;11.23;8.50;;;27.50;44.70;;;;;;5095666;28;20059;-75
2021/07/20 11:26:10;;;;;;;;;;;28.00;43.80;;;;;;5097261;28;20040;-75
2021/07/20 11:28:38;;;;;;;8.55;7.60;;;28.30;43.00;;;;;;5098264;28;19947;-74
2021/07/20 11:31:11;;;;;;;11.50;8.27;;;28.80;43.70;;;;;;5098736;28;20035;-76
2021/07/20 11:33:42;;;;;;;9.50;7.72;;;29.00;41.70;;;;;;5098598;28;20103;-75
2021/07/20 11:36:13;;;;;;;11.73;8.10;;;28.60;43.00;;;;;;5099487;28;20157;-75
2021/07/20 11:38:39;;;;;;;9.63;7.70;;;29.00;43.40;;;;;;5099907;28;20055;-75
2021/07/20 11:41:23;;;;;;;9.98;7.47;;;29.00;43.50;;;;;;5105288;28;20024;-81
2021/07/20 11:44:14;;;;;;;9.25;8.23;;;29.60;43.10;;;;;;5106690;28;20049;-80
2021/07/20 11:47:01;;;;;;;10.18;8.75;;;29.90;42.20;;;;;;5109548;28;20028;-76
2021/07/20 11:49:48;;;;;;;9.63;8.50;;;30.20;40.80;;;;;;5110418;28;20024;-78
2021/07/20 11:52:26;;;;;;;9.88;8.23;;;28.90;39.70;;;;;;5112279;28;20020;-77
2021/07/20 11:55:08;;;;;;;10.68;8.57;;;28.00;41.90;;;;;;5114140;28;20028;-76
2021/07/20 11:58:12;;;;;;;8.20;7.18;;;27.40;42.50;;;;;;5113379;28;20376;-75
2021/07/20 12:01:15;;;;;;;10.15;7.53;;;27.70;44.90;;;;;;5110990;28;20384;-74
2021/07/20 12:04:09;;;;;;;9.93;8.25;;;28.60;43.10;;;;;;5112958;28;20028;-76
2021/07/20 12:06:46;;;;;;;8.25;7.40;;;29.20;40.90;;;;;;5114752;28;20046;-75
2021/07/20 12:09:23;;;;;;;8.93;7.63;;;28.60;43.20;;;;;;5114184;28;20054;-76
2021/07/20 12:11:52;;;;;;;7.82;7.03;;;28.90;44.40;;;;;;5107015;28;20039;-76
2021/07/20 12:14:19;;;;;;;10.35;8.82;;;29.50;43.80;;;;;;5099993;28;20025;-76
2021/07/20 12:16:46;;;;;;;11.88;8.57;;;29.30;40.20;;;;;;5099225;28;20048;-75
2021/07/20 12:19:23;;;;;;;10.00;8.68;;;28.40;43.00;;;;;;5099669;28;20032;-74
2021/07/20 12:21:50;;;;;;;11.15;8.13;;;28.00;42.60;;;;;;5097365;28;20024;-74
2021/07/20 12:24:16;;;;;;;10.32;8.65;;;27.10;43.10;;;;;;5063471;28;20099;-75
2021/07/20 12:26:42;;;;;;;11.27;8.55;;;26.50;43.20;;;;;;5098241;28;20023;-76
2021/07/20 12:29:09;;;;;;;10.98;8.35;;;26.10;44.10;;;;;;5096816;28;20035;-79
2021/07/20 12:31:36;;;;;;;9.52;8.52;;;26.30;46.40;;;;;;5098104;28;20024;-76
2021/07/20 12:34:02;;;;;;;9.70;7.50;;;27.30;45.90;;;;;;5098113;28;20032;-74
2021/07/20 12:36:29;;;;;;;11.38;8.90;;;28.10;45.00;;;;;;5097940;28;20111;-76
2021/07/20 12:39:09;;;;;;;11.77;9.27;;;28.10;42.20;;;;;;5097361;28;20024;-76
2021/07/20 12:41:36;;;;;;;9.10;7.53;;;27.40;43.00;;;;;;5098090;28;20115;-75
2021/07/20 12:44:03;;;;;;;11.63;9.85;;;27.40;45.90;;;;;;5095619;28;20028;-76
2021/07/20 12:46:30;;;;;;;10.15;8.27;;;28.00;44.10;;;;;;5095451;28;20436;-75
2021/07/20 12:48:57;;;;;;;12.25;10.00;;;28.50;44.00;;;;;;5095398;28;20364;-74
2021/07/20 12:51:26;;;;;;;10.63;8.20;;;28.80;41.70;;;;;;5095604;28;20028;-75
2021/07/20 12:53:55;;;;;;;10.25;8.95;;;28.60;42.90;;;;;;5094260;28;20066;-75
2021/07/20 12:56:23;;;;;;;9.93;7.60;;;28.90;42.20;;;;;;5096043;28;20043;-74
2021/07/20 12:58:50;;;;;;;11.93;8.90;;;29.10;44.20;;;;;;5077867;28;20054;-74